AFL1712 ULLI-UUWW
Flight info
| Callsign | AFL1712 |
|---|---|
| Flight time | N/A |
| Altitude | 35000 |
| Route | SUGI1A SUGIN T873 NIRGI T73 DESUD T834 ADOKU T834 BEKIP BEKI3A |
| Aircraft | A321/M-VGD/A |
Departure
| Time | 2026-05-06 20:23 |
|---|---|
| Airport | Pulkovo Airport (ULLI) |
Arrival
| Time | N/A |
|---|---|
| Airport | Vnukovo International Airport (UUWW) |
| Time | Latitude | Longitude | Altitude | Speed | Heading |
|---|---|---|---|---|---|
| 2026-05-06 19:53 | 59.80188 | 30.26918 | 76 ft | 0 kts | 106° |
| 2026-05-06 20:03 | 59.80188 | 30.26917 | 76 ft | 0 kts | 106° |
| 2026-05-06 20:07 | 59.80193 | 30.26878 | 66 ft | 4 kts | 105° |
| 2026-05-06 20:08 | 59.80202 | 30.26820 | 70 ft | 4 kts | 107° |
| 2026-05-06 20:08 | 59.80211 | 30.26773 | 73 ft | 3 kts | 126° |
| 2026-05-06 20:08 | 59.80227 | 30.26740 | 67 ft | 3 kts | 153° |
| 2026-05-06 20:08 | 59.80249 | 30.26726 | 69 ft | 3 kts | 184° |
| 2026-05-06 20:09 | 59.80259 | 30.26728 | 73 ft | 0 kts | 193° |
| 2026-05-06 20:11 | 59.80218 | 30.26708 | 69 ft | 13 kts | 194° |
| 2026-05-06 20:11 | 59.80136 | 30.26664 | 75 ft | 14 kts | 197° |
| 2026-05-06 20:11 | 59.80049 | 30.26610 | 75 ft | 12 kts | 197° |
| 2026-05-06 20:11 | 59.79957 | 30.26555 | 79 ft | 20 kts | 196° |
| 2026-05-06 20:12 | 59.79806 | 30.26467 | 86 ft | 23 kts | 196° |
| 2026-05-06 20:12 | 59.79660 | 30.26382 | 83 ft | 21 kts | 197° |
| 2026-05-06 20:12 | 59.79540 | 30.26301 | 83 ft | 14 kts | 218° |
| 2026-05-06 20:12 | 59.79534 | 30.26142 | 86 ft | 11 kts | 287° |
| 2026-05-06 20:13 | 59.79563 | 30.26009 | 87 ft | 10 kts | 317° |
| 2026-05-06 20:13 | 59.79618 | 30.26009 | 83 ft | 8 kts | 17° |
| 2026-05-06 20:13 | 59.79672 | 30.26054 | 84 ft | 12 kts | 25° |
| 2026-05-06 20:13 | 59.79785 | 30.26129 | 82 ft | 20 kts | 16° |
| 2026-05-06 20:14 | 59.79930 | 30.26214 | 80 ft | 23 kts | 16° |
| 2026-05-06 20:14 | 59.80093 | 30.26309 | 78 ft | 26 kts | 15° |
| 2026-05-06 20:14 | 59.80266 | 30.26410 | 73 ft | 26 kts | 16° |
| 2026-05-06 20:14 | 59.80381 | 30.26450 | 75 ft | 13 kts | 13° |
| 2026-05-06 20:15 | 59.80401 | 30.26460 | 73 ft | 0 kts | 14° |
| 2026-05-06 20:15 | 59.80403 | 30.26461 | 73 ft | 2 kts | 14° |
| 2026-05-06 20:15 | 59.80441 | 30.26533 | 67 ft | 13 kts | 77° |
| 2026-05-06 20:15 | 59.80409 | 30.26787 | 73 ft | 25 kts | 106° |
| 2026-05-06 20:16 | 59.80350 | 30.27186 | 75 ft | 35 kts | 106° |
| 2026-05-06 20:16 | 59.80283 | 30.27643 | 71 ft | 34 kts | 106° |
| 2026-05-06 20:16 | 59.80218 | 30.28091 | 69 ft | 33 kts | 106° |
| 2026-05-06 20:16 | 59.80153 | 30.28525 | 72 ft | 32 kts | 107° |
| 2026-05-06 20:17 | 59.80088 | 30.28949 | 68 ft | 32 kts | 107° |
| 2026-05-06 20:17 | 59.80028 | 30.29362 | 70 ft | 31 kts | 106° |
| 2026-05-06 20:17 | 59.79967 | 30.29763 | 70 ft | 30 kts | 107° |
| 2026-05-06 20:17 | 59.79941 | 30.29973 | 66 ft | 11 kts | 87° |
| 2026-05-06 20:18 | 59.79974 | 30.30094 | 70 ft | 10 kts | 49° |
| 2026-05-06 20:18 | 59.79993 | 30.30135 | 69 ft | 0 kts | 48° |
| 2026-05-06 20:21 | 59.80017 | 30.30189 | 67 ft | 13 kts | 48° |
| 2026-05-06 20:21 | 59.80106 | 30.30253 | 68 ft | 14 kts | 340° |
| 2026-05-06 20:21 | 59.80142 | 30.30152 | 74 ft | 0 kts | 287° |
| 2026-05-06 20:22 | 59.80144 | 30.30139 | 73 ft | 6 kts | 287° |
| 2026-05-06 20:22 | 59.80240 | 30.29497 | 70 ft | 97 kts | 286° |
| 2026-05-06 20:22 | 59.80522 | 30.27656 | 68 ft | 174 kts | 287° |
| 2026-05-06 20:22 | 59.80895 | 30.25041 | 210 ft | 221 kts | 285° |
| 2026-05-06 20:23 | 59.81314 | 30.21834 | 621 ft | 258 kts | 285° |
| 2026-05-06 20:23 | 59.81799 | 30.18310 | 1527 ft | 260 kts | 287° |
| 2026-05-06 20:23 | 59.82308 | 30.14948 | 2751 ft | 254 kts | 288° |
| 2026-05-06 20:23 | 59.82825 | 30.11607 | 3332 ft | 254 kts | 288° |
| 2026-05-06 20:24 | 59.83345 | 30.08238 | 3479 ft | 255 kts | 288° |
| 2026-05-06 20:24 | 59.83853 | 30.04889 | 3519 ft | 254 kts | 287° |
| 2026-05-06 20:24 | 59.84126 | 30.01439 | 3550 ft | 256 kts | 262° |
| 2026-05-06 20:24 | 59.83478 | 29.98159 | 4380 ft | 258 kts | 235° |
| 2026-05-06 20:25 | 59.82193 | 29.95684 | 5123 ft | 259 kts | 209° |
| 2026-05-06 20:25 | 59.80490 | 29.94602 | 5814 ft | 259 kts | 182° |
| 2026-05-06 20:25 | 59.78716 | 29.95127 | 6502 ft | 261 kts | 158° |
| 2026-05-06 20:25 | 59.77224 | 29.97147 | 7165 ft | 264 kts | 131° |
| 2026-05-06 20:26 | 59.76314 | 30.00320 | 7811 ft | 269 kts | 105° |
| 2026-05-06 20:26 | 59.75919 | 30.03993 | 8507 ft | 275 kts | 102° |
| 2026-05-06 20:26 | 59.75547 | 30.07754 | 9197 ft | 281 kts | 102° |
| 2026-05-06 20:26 | 59.75165 | 30.11583 | 9916 ft | 286 kts | 102° |
| 2026-05-06 20:27 | 59.74775 | 30.15477 | 10553 ft | 290 kts | 103° |
| 2026-05-06 20:27 | 59.74378 | 30.19407 | 11205 ft | 293 kts | 103° |
| 2026-05-06 20:27 | 59.73975 | 30.23327 | 11864 ft | 295 kts | 103° |
| 2026-05-06 20:27 | 59.73559 | 30.27334 | 12541 ft | 298 kts | 103° |
| 2026-05-06 20:28 | 59.73140 | 30.31362 | 13232 ft | 300 kts | 103° |
| 2026-05-06 20:28 | 59.72720 | 30.35419 | 13923 ft | 301 kts | 104° |
| 2026-05-06 20:28 | 59.72298 | 30.39477 | 14553 ft | 301 kts | 104° |